Burhaniye, Turkey
Current Conditions -  °F | °C
As of 4:50 PM on Thursday 30 Oct 2014 (Local Time) from LTFD Reporting Station
Broken Clouds Broken Clouds  
Wind Chill: 61°   Ceiling: 10000
Heat Index: 61°   Visibility: 6mi
Dew Point: 50°   Wind: 15mph
Humidity: 68%   Direction: 90°E
Pressure: 30"   Gusts: NA
Location:  39.51°N, 26.98°E
Report Text: LTFD 301350Z 09013KT 9999 SCT030 BKN100 16/10 Q1016
Loading
Personal Weather Stations






























Interactive Weather Map
Tropical Storm Tracking
New forecast layout! Learn more

10-Day Weather Forecast

Advertisements
Track Severe Weather on mobile